Time;durP1;ratioP1;P1;durP2;ratioP2;P2;SDS_P1;SDS_P2;PMS_P1;PMS_P2;Temp;Humidity;BMP_temperature;BMP_pressure;BME280_temperature;BME280_humidity;BME280_pressure;Samples;Min_cycle;Max_cycle;Signal;HPM_P1;HPM_P2
2021/05/15 00:00:03;;;;;;;4.50;2.70;;;;;;;9.34;80.62;100043.53;5061953;28;20063;-49
2021/05/15 00:02:31;;;;;;;4.78;2.80;;;;;;;9.28;81.46;100041.00;5061714;28;20127;-49
2021/05/15 00:04:57;;;;;;;4.90;2.50;;;;;;;9.32;79.33;100045.31;5062262;28;20036;-52
2021/05/15 00:07:23;;;;;;;4.03;2.67;;;;;;;9.39;79.31;100039.13;5059438;28;20036;-51
2021/05/15 00:09:49;;;;;;;4.60;2.65;;;;;;;9.47;79.70;100036.44;5061843;28;20036;-51
2021/05/15 00:12:15;;;;;;;4.15;2.70;;;;;;;9.27;80.59;100027.06;5065126;28;20519;-51
2021/05/15 00:14:40;;;;;;;4.35;3.08;;;;;;;9.41;79.43;100031.28;5056760;28;20428;-50
2021/05/15 00:17:06;;;;;;;4.70;2.78;;;;;;;9.41;79.89;100029.53;5062608;27;20819;-49
2021/05/15 00:19:32;;;;;;;4.47;2.97;;;;;;;9.49;76.97;100034.69;5061224;28;20074;-49
2021/05/15 00:21:57;;;;;;;4.60;3.00;;;;;;;9.34;80.97;100028.72;5060892;28;20231;-50
2021/05/15 00:24:23;;;;;;;5.57;3.10;;;;;;;9.34;80.39;100025.25;5061560;28;20069;-50
2021/05/15 00:26:48;;;;;;;4.57;2.88;;;;;;;9.41;78.77;100033.91;5063568;28;20044;-49
2021/05/15 00:29:14;;;;;;;3.92;3.05;;;;;;;9.46;78.90;100025.16;5039538;28;20111;-48
2021/05/15 00:31:40;;;;;;;4.47;2.78;;;;;;;9.56;76.47;100023.28;5056367;28;20028;-50
2021/05/15 00:34:16;;;;;;;5.80;3.35;;;;;;;9.74;76.96;100022.22;5062087;28;20072;-48
2021/05/15 00:36:42;;;;;;;5.35;3.28;;;;;;;9.96;77.72;100027.19;5061192;27;20475;-49
2021/05/15 00:39:08;;;;;;;4.75;2.95;;;;;;;9.70;77.22;100026.59;5062266;28;20032;-48
2021/05/15 00:41:37;;;;;;;4.75;3.33;;;;;;;9.41;79.30;100024.31;5061330;28;20535;-48
2021/05/15 00:44:29;;;;;;;5.38;3.40;;;;;;;9.51;79.26;100022.47;5060265;28;20036;-48
2021/05/15 00:46:55;;;;;;;7.75;2.85;;;;;;;9.77;75.39;100021.34;5060514;28;20038;-49
2021/05/15 00:49:21;;;;;;;5.30;3.53;;;;;;;9.80;77.92;100013.47;5061278;28;20043;-49
2021/05/15 00:51:46;;;;;;;5.35;3.22;;;;;;;9.82;77.18;100009.94;5061845;28;20482;-49
2021/05/15 00:54:12;;;;;;;4.60;2.90;;;;;;;10.10;74.82;100008.75;5063682;28;20035;-50
2021/05/15 00:56:39;;;;;;;6.35;3.38;;;;;;;10.10;76.77;99998.28;5063352;28;20134;-50
2021/05/15 00:59:05;;;;;;;5.43;3.15;;;;;;;10.00;76.03;100000.16;5061704;28;20709;-51
2021/05/15 01:01:32;;;;;;;4.53;2.83;;;;;;;9.64;78.15;99997.13;5066755;28;20044;-50
2021/05/15 01:03:58;;;;;;;4.75;2.80;;;;;;;9.74;78.21;100006.56;5063624;28;20036;-51
2021/05/15 01:06:23;;;;;;;5.97;3.20;;;;;;;9.40;78.78;100001.75;5067400;28;20044;-51
2021/05/15 01:08:49;;;;;;;4.55;2.90;;;;;;;9.36;79.50;100011.34;5065878;28;20339;-49
2021/05/15 01:11:17;;;;;;;4.10;2.60;;;;;;;9.52;77.19;100012.00;5066874;28;20110;-50
2021/05/15 01:13:57;;;;;;;3.73;2.47;;;;;;;9.80;75.32;100005.63;5066015;28;20451;-49
2021/05/15 01:16:24;;;;;;;4.32;2.60;;;;;;;9.79;76.12;100010.00;5064594;27;20056;-48
2021/05/15 01:18:50;;;;;;;4.38;2.47;;;;;;;10.05;74.11;100007.06;5061857;28;20043;-51
2021/05/15 01:21:16;;;;;;;3.80;2.38;;;;;;;9.80;76.85;100014.34;5067293;28;20039;-49
2021/05/15 01:23:41;;;;;;;5.20;2.60;;;;;;;9.63;76.55;100008.44;5065222;28;20048;-50
2021/05/15 01:26:15;;;;;;;4.03;2.55;;;;;;;9.38;78.30;100008.69;5065605;27;20043;-50
2021/05/15 01:28:42;;;;;;;4.38;2.40;;;;;;;9.16;78.93;100008.91;5066263;28;20228;-50
2021/05/15 01:31:07;;;;;;;4.65;2.25;;;;;;;9.39;78.53;100013.06;5062293;28;20040;-49
2021/05/15 01:33:33;;;;;;;3.42;2.08;;;;;;;9.70;76.96;100013.56;5081077;28;20032;-48
2021/05/15 01:35:59;;;;;;;3.45;2.13;;;;;;;9.79;76.46;100010.00;5063289;28;20459;-52
2021/05/15 01:38:25;;;;;;;4.25;2.10;;;;;;;9.64;77.19;100005.81;5063307;27;20036;-54
2021/05/15 01:40:50;;;;;;;4.68;2.20;;;;;;;9.94;75.29;100002.84;5064008;28;20591;-48
2021/05/15 01:43:20;;;;;;;4.65;2.10;;;;;;;9.98;74.17;99999.31;5062413;28;20109;-50
2021/05/15 01:45:46;;;;;;;4.35;2.00;;;;;;;9.89;73.92;99995.09;5063839;28;20367;-52
2021/05/15 01:48:18;;;;;;;2.95;1.90;;;;;;;9.73;76.40;100009.19;5066760;28;20062;-48
2021/05/15 01:51:05;;;;;;;4.35;1.95;;;;;;;9.99;73.00;100001.03;5064740;28;20148;-48
2021/05/15 01:53:37;;;;;;;4.55;2.20;;;;;;;10.15;72.97;100002.56;5062225;28;20104;-51
2021/05/15 01:56:05;;;;;;;3.45;1.83;;;;;;;10.15;73.60;99992.13;5063906;28;20114;-49
2021/05/15 01:58:31;;;;;;;3.25;1.83;;;;;;;10.02;72.45;99990.56;5063301;27;20519;-50
2021/05/15 02:00:59;;;;;;;4.47;2.08;;;;;;;10.05;72.59;99985.28;5078796;28;20031;-49
2021/05/15 02:03:36;;;;;;;3.15;2.10;;;;;;;10.11;72.31;99992.19;5077434;28;20036;-48
2021/05/15 02:06:02;;;;;;;3.88;2.00;;;;;;;10.21;72.03;99986.81;5063070;28;20422;-48
2021/05/15 02:08:27;;;;;;;4.03;2.00;;;;;;;9.94;73.90;99987.19;5063067;27;20047;-50
2021/05/15 02:10:56;;;;;;;3.90;2.20;;;;;;;10.00;73.57;99976.66;5065932;28;20048;-49
2021/05/15 02:13:22;;;;;;;4.30;2.30;;;;;;;10.04;72.71;99976.59;5063069;28;20059;-49
2021/05/15 02:15:48;;;;;;;3.85;2.33;;;;;;;9.88;74.36;99978.56;5068381;28;20048;-51
2021/05/15 02:18:15;;;;;;;3.58;2.30;;;;;;;9.65;75.24;99971.00;5065356;28;20424;-50
2021/05/15 02:20:42;;;;;;;4.15;1.98;;;;;;;9.43;76.67;99970.41;5062982;27;20079;-49
2021/05/15 02:23:10;;;;;;;3.30;1.73;;;;;;;9.54;74.71;99970.28;5065184;28;20066;-48
2021/05/15 02:25:36;;;;;;;3.30;2.08;;;;;;;9.36;76.87;99966.97;5063836;28;20434;-49
2021/05/15 02:28:02;;;;;;;2.78;2.08;;;;;;;9.31;77.77;99970.53;5061739;27;20131;-51
2021/05/15 02:30:29;;;;;;;4.15;2.28;;;;;;;9.26;77.41;99972.31;5064488;28;20143;-49
2021/05/15 02:32:55;;;;;;;3.60;1.90;;;;;;;9.43;75.13;99967.78;5063694;28;20036;-49
2021/05/15 02:35:21;;;;;;;3.50;1.95;;;;;;;9.31;77.18;99967.91;5074782;28;20443;-50
2021/05/15 02:37:47;;;;;;;3.50;2.08;;;;;;;9.47;75.72;99966.88;5064045;28;20044;-49
2021/05/15 02:40:14;;;;;;;4.18;2.55;;;;;;;9.62;76.02;99970.16;5065249;27;20055;-48
2021/05/15 02:42:40;;;;;;;2.90;1.88;;;;;;;9.60;75.00;99958.91;5059900;28;20110;-48
2021/05/15 02:45:08;;;;;;;3.33;1.70;;;;;;;9.74;74.73;99967.41;5063611;28;20060;-51
2021/05/15 02:47:34;;;;;;;5.03;2.05;;;;;;;9.78;73.48;99956.06;5061907;28;20048;-49
2021/05/15 02:50:00;;;;;;;4.72;2.30;;;;;;;9.89;73.91;99962.00;5061612;27;20546;-49
2021/05/15 02:52:26;;;;;;;4.15;2.30;;;;;;;9.91;73.04;99955.91;5053819;28;20048;-49
2021/05/15 02:54:52;;;;;;;3.13;1.90;;;;;;;9.97;71.50;99961.03;5060966;28;20028;-51
2021/05/15 02:57:17;;;;;;;3.38;1.88;;;;;;;9.99;72.46;99961.88;5064066;28;20036;-49
2021/05/15 02:59:43;;;;;;;3.30;1.80;;;;;;;9.96;73.21;99964.53;5063331;28;20552;-51
2021/05/15 03:02:09;;;;;;;2.65;1.70;;;;;;;9.83;71.64;99959.47;5062370;27;20432;-52
2021/05/15 03:04:35;;;;;;;3.35;1.73;;;;;;;9.97;71.79;99956.69;5059358;28;20043;-49
2021/05/15 03:07:00;;;;;;;3.85;1.92;;;;;;;10.09;71.44;99955.63;5063657;28;21011;-49
2021/05/15 03:09:26;;;;;;;3.28;2.00;;;;;;;10.18;71.87;99947.66;5064469;28;20032;-50
2021/05/15 03:11:52;;;;;;;4.05;2.05;;;;;;;10.13;72.54;99949.47;5063223;28;20059;-49
2021/05/15 03:14:18;;;;;;;2.10;1.60;;;;;;;10.27;72.17;99958.88;5059720;28;20044;-51
2021/05/15 03:16:44;;;;;;;3.53;1.85;;;;;;;10.08;71.16;99958.25;5076367;28;20035;-50
2021/05/15 03:19:16;;;;;;;4.05;1.90;;;;;;;9.95;72.94;99952.34;5062573;28;20032;-49
2021/05/15 03:21:42;;;;;;;3.35;1.95;;;;;;;10.03;72.95;99934.84;5063673;27;20510;-48
2021/05/15 03:24:08;;;;;;;2.58;1.70;;;;;;;10.07;72.39;99935.66;5061426;28;20511;-51
2021/05/15 03:26:33;;;;;;;3.00;1.88;;;;;;;10.05;72.76;99938.28;5060947;28;20039;-49
2021/05/15 03:29:00;;;;;;;2.95;1.70;;;;;;;9.97;71.23;99942.75;5064159;28;20552;-49
2021/05/15 03:31:26;;;;;;;2.97;1.77;;;;;;;9.93;70.82;99939.31;5060970;27;20054;-50
2021/05/15 03:33:51;;;;;;;3.42;1.80;;;;;;;10.08;71.30;99938.25;5061442;28;20090;-50
2021/05/15 03:36:18;;;;;;;4.25;1.80;;;;;;;10.11;71.26;99938.19;5062732;28;20874;-50
2021/05/15 03:38:43;;;;;;;4.75;1.98;;;;;;;10.04;71.51;99947.03;5061568;28;20067;-50
2021/05/15 03:41:09;;;;;;;3.10;1.70;;;;;;;10.05;72.26;99951.34;5062068;28;20123;-49
2021/05/15 03:43:35;;;;;;;3.13;1.95;;;;;;;10.07;72.49;99944.34;5061732;27;20128;-50
2021/05/15 03:46:00;;;;;;;4.38;1.90;;;;;;;10.00;72.00;99940.97;5062522;28;20043;-48
2021/05/15 03:48:26;;;;;;;3.55;1.90;;;;;;;9.95;71.49;99947.13;5061604;28;20036;-48
2021/05/15 03:50:53;;;;;;;4.00;2.00;;;;;;;10.00;72.52;99951.41;5060344;28;20028;-50
2021/05/15 03:53:20;;;;;;;3.30;2.05;;;;;;;9.96;73.61;99938.44;5059925;28;20523;-49
2021/05/15 03:55:47;;;;;;;3.13;2.00;;;;;;;9.96;73.66;99947.13;5061606;28;20055;-49
2021/05/15 03:58:14;;;;;;;4.70;2.03;;;;;;;9.99;72.90;99943.59;5062952;28;20085;-52
2021/05/15 04:00:41;;;;;;;4.10;2.40;;;;;;;9.98;72.99;99947.97;5061006;28;20376;-50
2021/05/15 04:03:07;;;;;;;4.18;2.15;;;;;;;10.22;76.60;99943.28;5047211;28;20044;-50
2021/05/15 04:05:32;;;;;;;3.38;1.90;;;;;;;9.96;74.33;99952.34;5062337;28;20343;-49
2021/05/15 04:07:59;;;;;;;3.10;2.03;;;;;;;9.93;74.15;99946.28;5066605;28;20082;-51
2021/05/15 04:10:25;;;;;;;4.07;1.88;;;;;;;9.87;74.65;99948.09;5066873;28;20399;-49
2021/05/15 04:18:22;;;;;;;3.75;2.05;;;;;;;10.17;75.34;99947.69;5030310;28;20279;-49
2021/05/15 04:20:48;;;;;;;4.95;2.60;;;;;;;10.12;73.97;99944.28;5071509;28;20046;-50
2021/05/15 04:23:13;;;;;;;3.83;2.53;;;;;;;10.00;74.29;99943.56;5064517;28;20036;-50
2021/05/15 04:25:40;;;;;;;3.95;2.50;;;;;;;9.95;76.89;99950.59;5063304;28;20119;-51
2021/05/15 04:28:07;;;;;;;5.10;2.88;;;;;;;9.97;77.56;99950.56;5063246;28;20050;-50
2021/05/15 04:30:34;;;;;;;4.35;2.60;;;;;;;10.05;76.22;99941.78;5068293;28;20520;-50
2021/05/15 04:33:01;;;;;;;5.00;2.70;;;;;;;9.85;77.31;99952.47;5066132;28;20039;-50
2021/05/15 04:35:27;;;;;;;4.57;2.70;;;;;;;9.88;77.61;99947.22;5080958;27;20058;-51
2021/05/15 04:37:53;;;;;;;3.42;2.45;;;;;;;9.94;77.04;99943.69;5064002;28;20467;-48
2021/05/15 04:40:19;;;;;;;5.88;2.58;;;;;;;10.03;78.17;99951.34;5068103;28;20043;-49
2021/05/15 04:42:45;;;;;;;4.43;2.60;;;;;;;9.94;77.43;99950.63;5063622;28;20028;-48
2021/05/15 04:45:13;;;;;;;4.40;2.25;;;;;;;9.79;76.27;99949.06;5068756;28;20369;-48
2021/05/15 04:47:41;;;;;;;4.43;2.80;;;;;;;9.82;77.20;99949.91;5067915;27;20047;-50
2021/05/15 04:50:09;;;;;;;4.15;2.47;;;;;;;9.84;74.31;99942.94;5061189;28;20404;-48
2021/05/15 04:52:35;;;;;;;;;;;;;;;9.93;75.58;99949.78;5064432;28;20092;-48
2021/05/15 04:55:01;;;;;;;4.65;2.90;;;;;;;9.99;76.96;99952.28;5062277;28;20383;-50
2021/05/15 04:57:26;;;;;;;5.55;2.80;;;;;;;9.84;76.81;99949.88;5067048;28;20036;-48
2021/05/15 04:59:52;;;;;;;4.50;2.70;;;;;;;9.78;75.24;99945.59;5065014;28;20033;-49
2021/05/15 05:02:18;;;;;;;4.70;2.80;;;;;;;9.79;74.75;99946.47;5062592;28;20088;-51
2021/05/15 05:04:43;;;;;;;4.60;2.72;;;;;;;9.93;74.75;99948.88;5061057;28;20043;-50
2021/05/15 05:07:09;;;;;;;3.95;2.40;;;;;;;9.98;73.47;99947.09;5063391;28;20040;-51
2021/05/15 05:09:35;;;;;;;4.20;2.63;;;;;;;9.97;76.22;99950.56;5063779;28;20540;-50
2021/05/15 05:12:01;;;;;;;4.43;3.20;;;;;;;10.04;76.33;99950.47;5063913;28;20036;-48
2021/05/15 05:14:27;;;;;;;3.58;2.58;;;;;;;9.84;75.66;99950.78;5063315;28;20123;-50
2021/05/15 05:16:55;;;;;;;4.93;2.85;;;;;;;9.95;74.42;99944.53;5064031;28;20040;-50
2021/05/15 05:19:22;;;;;;;5.13;3.20;;;;;;;9.96;74.62;99944.50;5063913;28;20046;-49
2021/05/15 05:21:52;;;;;;;6.38;2.90;;;;;;;9.92;75.59;99949.78;5070735;28;20020;-50
2021/05/15 05:24:19;;;;;;;4.60;2.92;;;;;;;9.84;76.19;99942.94;5063433;28;20021;-50
2021/05/15 05:26:45;;;;;;;5.10;3.10;;;;;;;9.91;74.84;99937.63;5064033;28;20037;-49
2021/05/15 05:29:11;;;;;;;4.70;2.90;;;;;;;9.95;75.97;99942.75;5064340;28;20101;-49
2021/05/15 05:31:41;;;;;;;4.90;2.80;;;;;;;9.98;73.74;99940.13;5073374;28;20096;-49
2021/05/15 05:34:07;;;;;;;5.15;2.85;;;;;;;9.98;73.98;99936.66;5068444;28;20079;-50
2021/05/15 05:36:34;;;;;;;3.90;2.50;;;;;;;9.89;75.12;99941.09;5064963;28;20407;-50
2021/05/15 05:39:04;;;;;;;4.32;3.08;;;;;;;9.85;76.72;99935.97;5085432;28;20117;-50
2021/05/15 05:41:31;;;;;;;4.60;2.55;;;;;;;9.85;74.46;99934.19;5069720;28;20044;-50
2021/05/15 05:43:56;;;;;;;4.75;2.80;;;;;;;9.96;76.28;99926.22;5068546;28;21135;-48
2021/05/15 05:46:22;;;;;;;4.25;2.65;;;;;;;10.08;76.70;99927.81;5067716;28;20055;-48
2021/05/15 05:48:49;;;;;;;4.72;3.20;;;;;;;10.09;76.65;99929.50;5068407;28;20070;-48
2021/05/15 05:51:15;;;;;;;4.25;2.70;;;;;;;9.85;74.68;99934.19;5070951;28;20502;-50
2021/05/15 05:53:41;;;;;;;4.57;2.90;;;;;;;9.79;74.80;99931.69;5071418;28;20040;-49
2021/05/15 05:56:07;;;;;;;6.97;2.80;;;;;;;9.87;75.93;99935.06;5086369;27;20522;-50
2021/05/15 05:58:33;;;;;;;4.82;3.13;;;;;;;10.06;76.13;99924.34;5065488;28;20443;-48
2021/05/15 06:00:59;;;;;;;4.57;3.20;;;;;;;10.05;77.03;99933.06;5068536;27;20721;-49
2021/05/15 06:03:25;;;;;;;4.13;2.63;;;;;;;9.98;75.37;99929.69;5070316;28;20089;-49
2021/05/15 06:05:51;;;;;;;4.30;2.80;;;;;;;9.98;74.77;99932.31;5074918;28;21055;-49
2021/05/15 06:08:17;;;;;;;4.97;3.00;;;;;;;9.93;74.68;99930.63;5070916;28;20387;-50
2021/05/15 06:10:43;;;;;;;5.13;2.83;;;;;;;9.96;77.17;99928.84;5065996;28;20114;-51
2021/05/15 06:13:10;;;;;;;4.60;2.88;;;;;;;10.15;76.46;99933.78;5069957;28;20041;-49
2021/05/15 06:15:37;;;;;;;5.72;3.10;;;;;;;9.98;75.52;99936.66;5070188;28;20618;-51
2021/05/15 06:18:04;;;;;;;4.25;2.65;;;;;;;9.90;76.73;99931.53;5065390;28;20044;-49
2021/05/15 06:20:29;;;;;;;3.97;2.67;;;;;;;9.87;74.57;99924.63;5071397;28;20042;-51
2021/05/15 06:22:56;;;;;;;4.05;2.80;;;;;;;9.84;74.92;99929.00;5067710;28;20040;-49
2021/05/15 06:25:23;;;;;;;4.72;2.45;;;;;;;10.04;75.90;99919.16;5068319;28;20078;-52
2021/05/15 06:27:49;;;;;;;5.05;2.80;;;;;;;9.94;74.65;99919.28;5068548;28;20508;-54
2021/05/15 06:30:19;;;;;;;4.68;3.10;;;;;;;10.10;75.77;99926.03;5077174;28;20036;-49
2021/05/15 06:32:48;;;;;;;4.47;3.00;;;;;;;9.91;74.79;99924.56;5086655;28;20109;-49
2021/05/15 06:35:14;;;;;;;4.47;2.97;;;;;;;9.89;76.82;99927.19;5073824;28;20031;-50
2021/05/15 06:37:48;;;;;;;4.70;3.40;;;;;;;9.97;78.07;99934.91;5066504;28;20044;-50
2021/05/15 06:40:14;;;;;;;5.38;3.05;;;;;;;9.93;76.86;99928.88;5070344;27;20052;-49
2021/05/15 06:42:40;;;;;;;4.97;3.28;;;;;;;9.88;77.34;99925.47;5072957;28;20116;-50
2021/05/15 06:45:08;;;;;;;4.80;3.05;;;;;;;9.91;78.29;99924.56;5047122;28;20672;-49
2021/05/15 06:47:35;;;;;;;5.22;3.50;;;;;;;10.06;77.95;99924.34;5065334;28;20055;-49
2021/05/15 06:50:02;;;;;;;5.80;3.30;;;;;;;9.97;76.01;99924.47;5070471;28;21208;-51
2021/05/15 06:52:28;;;;;;;7.13;3.65;;;;;;;10.12;77.92;99918.16;5065361;28;20066;-48
2021/05/15 06:54:53;;;;;;;6.38;3.50;;;;;;;10.07;77.18;99926.06;5065141;28;20036;-51
2021/05/15 06:57:19;;;;;;;4.72;3.80;;;;;;;10.20;77.85;99925.03;5072824;28;20031;-53
2021/05/15 06:59:49;;;;;;;5.18;3.78;;;;;;;10.05;76.57;99922.59;5082289;28;20488;-48
2021/05/15 07:02:14;;;;;;;6.93;4.13;;;;;;;10.19;76.97;99920.69;5070792;28;20040;-49
2021/05/15 07:04:41;;;;;;;6.35;3.80;;;;;;;10.17;78.36;99922.44;5065498;28;20092;-50
2021/05/15 07:07:07;;;;;;;5.45;3.80;;;;;;;10.09;77.27;99923.44;5068538;28;20047;-52
2021/05/15 07:09:32;;;;;;;5.63;3.72;;;;;;;9.94;78.40;99919.28;5054411;28;20644;-49
2021/05/15 07:11:58;;;;;;;6.63;4.32;;;;;;;10.25;78.83;99921.47;5067649;28;20535;-49
2021/05/15 07:14:25;;;;;;;6.63;4.30;;;;;;;10.46;77.96;99920.31;5069380;28;20381;-48
2021/05/15 07:16:52;;;;;;;5.60;3.92;;;;;;;10.44;78.08;99917.72;5070883;28;20048;-49
2021/05/15 07:19:18;;;;;;;6.75;4.10;;;;;;;10.33;78.09;99917.00;5064254;27;20094;-49
2021/05/15 07:21:43;;;;;;;7.88;4.93;;;;;;;10.49;76.97;99918.47;5069067;28;20036;-51
2021/05/15 07:24:09;;;;;;;7.03;4.75;;;;;;;10.26;76.38;99915.34;5071041;28;20060;-50
2021/05/15 07:26:36;;;;;;;6.72;4.40;;;;;;;10.37;75.94;99918.69;5073630;28;20044;-49
2021/05/15 07:29:02;;;;;;;6.00;4.05;;;;;;;10.52;75.90;99921.06;5095349;28;20089;-48
2021/05/15 07:31:29;;;;;;;5.43;4.07;;;;;;;10.22;75.48;99909.31;5075642;28;20424;-50
2021/05/15 07:33:55;;;;;;;5.75;4.13;;;;;;;10.47;75.47;99915.03;5068965;28;20036;-53
2021/05/15 07:36:21;;;;;;;6.75;4.82;;;;;;;10.41;75.34;99909.91;5074549;28;20047;-50
2021/05/15 07:38:49;;;;;;;6.90;4.82;;;;;;;10.54;74.47;99906.22;5068480;27;20275;-50
2021/05/15 07:41:17;;;;;;;7.47;4.85;;;;;;;10.47;74.81;99909.81;5064772;27;20307;-48
2021/05/15 07:43:43;;;;;;;7.00;4.97;;;;;;;10.59;73.65;99913.13;5071522;28;20141;-49
2021/05/15 07:46:09;;;;;;;8.30;4.72;;;;;;;10.59;73.39;99911.34;5071580;28;20385;-50
2021/05/15 07:48:40;;;;;;;6.95;4.53;;;;;;;10.64;74.56;99906.91;5067484;28;20483;-52
2021/05/15 07:51:09;;;;;;;7.13;4.55;;;;;;;10.80;73.20;99906.63;5063482;28;20056;-50
2021/05/15 07:53:35;;;;;;;6.30;4.28;;;;;;;10.84;72.31;99908.31;5043499;28;20131;-49
2021/05/15 07:56:02;;;;;;;6.20;4.10;;;;;;;10.95;72.60;99913.34;5067266;28;20047;-50
2021/05/15 07:58:28;;;;;;;5.47;4.10;;;;;;;10.94;72.07;99903.78;5066871;28;20052;-49
2021/05/15 08:00:54;;;;;;;6.50;4.50;;;;;;;10.91;73.93;99899.50;5063301;28;20027;-49
2021/05/15 08:03:20;;;;;;;7.53;4.85;;;;;;;10.95;74.70;99900.28;5068772;28;20023;-50
2021/05/15 08:05:46;;;;;;;7.22;4.63;;;;;;;11.13;75.04;99904.28;5058908;28;20051;-50
2021/05/15 08:08:12;;;;;;;5.30;4.18;;;;;;;10.96;76.26;99897.63;5067401;28;20108;-49
2021/05/15 08:10:38;;;;;;;5.80;4.18;;;;;;;11.07;74.10;99900.06;5069667;28;20047;-50
2021/05/15 08:13:04;;;;;;;6.28;4.18;;;;;;;11.18;73.95;99897.22;5059960;27;20495;-51
2021/05/15 08:15:30;;;;;;;5.47;4.05;;;;;;;11.02;72.79;99894.91;5069483;28;20114;-50
2021/05/15 08:17:56;;;;;;;5.78;4.20;;;;;;;11.41;70.29;99884.53;5068580;28;20046;-50
2021/05/15 08:20:24;;;;;;;6.13;4.53;;;;;;;11.13;72.36;99891.22;5064978;28;20902;-52
2021/05/15 08:22:50;;;;;;;7.15;4.80;;;;;;;11.51;70.90;99889.59;5069091;27;20044;-49
2021/05/15 08:25:17;;;;;;;6.65;4.72;;;;;;;11.47;70.01;99887.94;5066463;28;20227;-49
2021/05/15 08:27:44;;;;;;;6.05;4.10;;;;;;;11.41;69.59;99886.31;5083648;28;20066;-48
2021/05/15 08:30:15;;;;;;;5.40;4.15;;;;;;;11.35;70.72;99886.41;5074942;28;20387;-49
2021/05/15 08:32:41;;;;;;;6.72;4.28;;;;;;;11.56;68.01;99877.25;5066962;28;20484;-51
2021/05/15 08:35:08;;;;;;;5.40;3.80;;;;;;;11.34;69.21;99882.97;5068521;28;20044;-50
2021/05/15 08:37:34;;;;;;;7.50;3.97;;;;;;;11.54;69.44;99877.28;5070880;28;20519;-49
2021/05/15 08:40:01;;;;;;;5.78;4.10;;;;;;;11.61;69.22;99882.41;5050701;28;20451;-49
2021/05/15 08:42:28;;;;;;;5.38;4.07;;;;;;;11.59;70.11;99871.97;5067877;28;21043;-48
2021/05/15 08:44:57;;;;;;;6.25;4.20;;;;;;;11.54;70.38;99869.44;5071391;28;20400;-50
2021/05/15 08:47:22;;;;;;;;;;;;;;;11.70;68.58;99866.47;5068893;28;20123;-50
2021/05/15 08:49:48;;;;;;;5.80;4.40;;;;;;;11.64;70.43;99869.25;5074209;28;20391;-49
2021/05/15 08:52:15;;;;;;;5.15;3.53;;;;;;;11.45;68.47;99869.66;5062658;28;20259;-50
2021/05/15 08:54:41;;;;;;;5.05;3.67;;;;;;;11.58;68.84;99865.00;5079651;28;20032;-52
2021/05/15 08:57:08;;;;;;;5.53;3.80;;;;;;;11.84;66.13;99861.81;5076147;28;20494;-51
2021/05/15 08:59:34;;;;;;;5.35;3.70;;;;;;;11.88;66.12;99860.84;5065248;28;20101;-49
2021/05/15 09:02:00;;;;;;;5.28;3.65;;;;;;;11.68;67.48;99857.81;5073476;28;20036;-50
2021/05/15 09:04:26;;;;;;;5.35;3.60;;;;;;;11.66;68.12;99862.19;5069947;28;20123;-51
2021/05/15 09:06:53;;;;;;;7.20;3.80;;;;;;;11.73;67.17;99856.81;5063638;28;20028;-54
2021/05/15 09:09:19;;;;;;;5.80;3.80;;;;;;;11.93;65.32;99853.75;5066952;28;20527;-49
2021/05/15 09:11:47;;;;;;;5.13;3.90;;;;;;;11.75;66.55;99854.16;5063758;28;20344;-53
2021/05/15 09:14:15;;;;;;;6.35;3.97;;;;;;;11.87;66.04;99861.75;5065596;28;20113;-52
2021/05/15 09:16:55;;;;;;;4.97;4.07;;;;;;;11.95;66.74;99852.88;5072829;28;20085;-50
2021/05/15 09:19:24;;;;;;;8.07;4.90;;;;;;;12.13;65.70;99851.56;5070126;28;20396;-50
2021/05/15 09:21:58;;;;;;;5.45;4.00;;;;;;;12.06;68.43;99848.25;5069241;28;20364;-52
2021/05/15 09:24:36;;;;;;;6.43;4.18;;;;;;;12.19;68.87;99851.44;5074508;28;20038;-52
2021/05/15 09:27:06;;;;;;;5.80;4.25;;;;;;;12.50;64.97;99834.94;5069725;28;20043;-49
2021/05/15 09:29:47;;;;;;;6.00;4.70;;;;;;;12.60;65.35;99824.16;5065261;28;20050;-50
2021/05/15 09:32:14;;;;;;;6.95;5.47;;;;;;;12.81;64.55;99819.25;5072846;28;20040;-50
2021/05/15 09:34:49;;;;;;;6.80;5.13;;;;;;;12.76;64.66;99824.59;5082996;27;20555;-49
2021/05/15 09:37:35;;;;;;;4.85;3.35;;;;;;;12.87;59.08;99816.44;5071663;28;20055;-52
2021/05/15 09:40:14;;;;;;;5.45;4.05;;;;;;;12.98;61.65;99810.06;5071587;28;20055;-53
2021/05/15 09:42:55;;;;;;;4.90;3.35;;;;;;;13.31;58.90;99799.47;5068736;28;20028;-53
2021/05/15 09:45:24;;;;;;;4.65;3.20;;;;;;;13.09;61.28;99807.97;5066952;28;21638;-52
2021/05/15 09:47:51;;;;;;;;;;;;;;;13.18;59.27;99806.84;5062549;28;20093;-52
2021/05/15 09:50:17;;;;;;;5.55;3.53;;;;;;;13.14;60.00;99803.47;5065135;28;20690;-50
2021/05/15 09:52:43;;;;;;;4.97;3.40;;;;;;;13.12;60.19;99802.63;5075079;28;20040;-49
2021/05/15 09:55:09;;;;;;;5.95;3.30;;;;;;;13.13;59.27;99793.88;5068686;28;20224;-54
2021/05/15 09:57:36;;;;;;;5.68;4.07;;;;;;;13.19;58.83;99788.41;5067837;28;20778;-49
2021/05/15 10:00:13;;;;;;;4.95;2.90;;;;;;;12.97;59.48;99780.31;5068250;28;20508;-49
2021/05/15 10:02:40;;;;;;;4.18;3.03;;;;;;;13.18;57.87;99807.72;5066466;28;20051;-51
2021/05/15 10:05:10;;;;;;;3.78;2.13;;;;;;;12.98;56.59;99789.06;5063880;28;20415;-48
2021/05/15 10:07:37;;;;;;;2.83;1.55;;;;;;;12.77;55.16;99796.63;5069138;28;20126;-49
2021/05/15 10:10:09;;;;;;;3.15;1.65;;;;;;;12.52;56.85;99805.16;5067333;28;20143;-49
2021/05/15 10:12:36;;;;;;;2.20;1.50;;;;;;;12.42;57.71;99795.81;5067583;28;20032;-50
2021/05/15 10:15:05;;;;;;;3.47;1.50;;;;;;;12.32;58.19;99813.53;5066886;28;20039;-49
2021/05/15 10:17:35;;;;;;;3.35;1.58;;;;;;;12.06;61.08;99799.34;5061059;27;20047;-48
2021/05/15 10:20:09;;;;;;;3.35;1.70;;;;;;;12.06;63.02;99806.34;5063767;28;20040;-53
2021/05/15 10:22:44;;;;;;;4.53;2.20;;;;;;;11.83;65.38;99801.63;5060112;28;20028;-50
2021/05/15 10:25:15;;;;;;;2.85;1.90;;;;;;;11.71;66.81;99805.38;5061312;28;20052;-52
2021/05/15 10:27:41;;;;;;;3.80;1.90;;;;;;;11.54;67.84;99797.91;5070612;28;20506;-50
2021/05/15 10:30:25;;;;;;;2.72;1.65;;;;;;;11.58;66.70;99808.28;5065656;28;20044;-49
2021/05/15 10:33:03;;;;;;;3.50;2.17;;;;;;;11.59;66.84;99812.63;5062986;28;20404;-50
2021/05/15 10:35:38;;;;;;;3.35;1.88;;;;;;;11.37;68.48;99819.22;5068628;28;20048;-52
2021/05/15 10:38:06;;;;;;;5.47;2.63;;;;;;;11.25;71.23;99810.72;5071580;28;20048;-48
2021/05/15 10:41:09;;;;;;;4.63;2.63;;;;;;;10.87;74.29;99822.00;5067186;28;20143;-47
2021/05/15 10:43:36;;;;;;;5.60;3.33;;;;;;;10.67;77.15;99827.59;5059065;28;20056;-50
2021/05/15 10:46:27;;;;;;;5.80;3.15;;;;;;;10.49;75.19;99824.41;5064743;27;22952;-50
2021/05/15 10:48:56;;;;;;;3.97;2.47;;;;;;;10.37;75.30;99822.00;5064826;28;20032;-50
2021/05/15 10:51:33;;;;;;;;;;;;;;;10.09;77.60;99817.22;5068003;28;20403;-49
2021/05/15 10:54:00;;;;;;;3.85;2.65;;;;;;;10.06;78.98;99822.50;5049343;28;19965;-52
2021/05/15 10:56:31;;;;;;;5.32;2.95;;;;;;;10.16;80.09;99804.94;5064521;28;20387;-54
2021/05/15 10:59:11;;;;;;;4.40;2.53;;;;;;;10.25;80.44;99814.38;5065651;28;20043;-53
2021/05/15 11:01:44;;;;;;;3.90;1.98;;;;;;;10.51;75.15;99816.56;5065429;28;20040;-51
2021/05/15 11:04:17;;;;;;;4.68;2.60;;;;;;;10.77;76.52;99816.06;5063684;28;20488;-54
2021/05/15 11:07:00;;;;;;;5.00;2.63;;;;;;;10.95;77.14;99796.56;5069441;28;20046;-53
2021/05/15 11:09:27;;;;;;;5.05;2.78;;;;;;;11.06;75.73;99799.81;5075571;28;20043;-49
2021/05/15 11:12:03;;;;;;;4.80;2.40;;;;;;;11.30;77.03;99791.44;5073353;28;20127;-54
2021/05/15 11:14:31;;;;;;;6.03;3.70;;;;;;;11.36;76.05;99791.34;5067641;28;20089;-53
2021/05/15 11:17:07;;;;;;;5.70;4.18;;;;;;;11.43;74.79;99778.97;5066122;28;21003;-51
2021/05/15 11:19:34;;;;;;;5.95;3.60;;;;;;;11.53;75.57;99773.50;5063599;28;20502;-52
2021/05/15 11:22:01;;;;;;;5.07;3.70;;;;;;;11.40;75.96;99770.28;5072969;28;20514;-53
2021/05/15 11:24:37;;;;;;;6.22;3.72;;;;;;;11.77;77.00;99760.72;5072513;28;20408;-52
2021/05/15 11:27:17;;;;;;;6.97;3.72;;;;;;;11.85;77.20;99764.03;5067256;28;20071;-51
2021/05/15 11:29:43;;;;;;;7.28;3.55;;;;;;;11.76;77.68;99759.00;5072732;28;20119;-54
2021/05/15 11:32:15;;;;;;;3.90;2.35;;;;;;;12.04;73.57;99755.72;5075206;28;20040;-52
2021/05/15 11:34:42;;;;;;;3.78;2.33;;;;;;;12.03;72.65;99748.78;5075318;28;20087;-51
2021/05/15 11:37:12;;;;;;;3.58;2.25;;;;;;;12.02;72.58;99734.81;5076108;27;20036;-55
2021/05/15 11:39:39;;;;;;;4.60;2.13;;;;;;;11.92;73.45;99739.41;5075084;28;20082;-52
2021/05/15 11:42:14;;;;;;;4.68;2.50;;;;;;;12.20;73.06;99743.97;5073043;28;20304;-55
2021/05/15 11:44:51;;;;;;;4.05;2.08;;;;;;;12.33;74.08;99734.00;5074172;28;20051;-55